Time;durP1;ratioP1;P1;durP2;ratioP2;P2;SDS_P1;SDS_P2;PMS_P1;PMS_P2;Temp;Humidity;BMP_temperature;BMP_pressure;BME280_temperature;BME280_humidity;BME280_pressure;Samples;Min_cycle;Max_cycle;Signal;HPM_P1;HPM_P2
2023/07/31 00:00:38;;;;;;;;;;;16.00;99.90;;;;;;5059050;28;19921;-78
2023/07/31 00:03:03;;;;;;;;;;;16.00;99.90;;;;;;5029804;28;20017;-80
2023/07/31 00:05:29;;;;;;;;;;;16.00;99.90;;;;;;5046271;28;19967;-80
2023/07/31 00:07:54;;;;;;;;;;;16.10;99.90;;;;;;5036859;28;19923;-80
2023/07/31 00:10:20;;;;;;;;;;;16.10;99.90;;;;;;5029180;28;19925;-80
2023/07/31 00:12:46;;;;;;;;;;;16.00;99.90;;;;;;5067033;28;19916;-81
2023/07/31 00:15:12;;;;;;;;;;;16.00;99.90;;;;;;5025755;28;19916;-80
2023/07/31 00:17:38;;;;;;;;;;;16.00;99.90;;;;;;5073680;28;19916;-81
2023/07/31 00:20:04;;;;;;;;;;;16.00;99.90;;;;;;5077054;28;19921;-85
2023/07/31 00:22:30;;;;;;;;;;;15.90;99.90;;;;;;5037568;28;20420;-85
2023/07/31 00:24:56;;;;;;;;;;;15.90;99.90;;;;;;5042349;28;20331;-83
2023/07/31 00:27:27;;;;;;;;;;;15.80;99.90;;;;;;5034949;28;20390;-82
2023/07/31 00:29:53;;;;;;;;;;;15.80;99.90;;;;;;5055216;28;19917;-82
2023/07/31 00:32:18;;;;;;;;;;;15.70;99.90;;;;;;5048484;28;19935;-81
2023/07/31 00:34:44;;;;;;;;;;;15.70;99.90;;;;;;5052031;28;19946;-79
2023/07/31 00:37:11;;;;;;;;;;;15.70;99.90;;;;;;5052353;28;20319;-80
2023/07/31 00:39:37;;;;;;;;;;;15.60;99.90;;;;;;5047251;28;20359;-81
2023/07/31 00:42:02;;;;;;;;;;;15.60;99.90;;;;;;5037311;28;19933;-80
2023/07/31 00:44:28;;;;;;;;;;;15.60;99.90;;;;;;5068113;28;19961;-81
2023/07/31 00:46:54;;;;;;;;;;;15.30;99.90;;;;;;5060975;28;19924;-81
2023/07/31 00:49:20;;;;;;;;;;;15.50;99.90;;;;;;5027934;28;19916;-80
2023/07/31 00:51:46;;;;;;;;;;;15.50;99.90;;;;;;5035673;28;20029;-81
2023/07/31 00:54:12;;;;;;;;;;;15.50;99.90;;;;;;5031531;28;20389;-80
2023/07/31 00:56:37;;;;;;;;;;;15.50;99.90;;;;;;5034398;28;20011;-81
2023/07/31 00:59:04;;;;;;;;;;;15.50;99.90;;;;;;5015490;28;20018;-79
2023/07/31 01:01:29;;;;;;;;;;;15.50;99.90;;;;;;5048996;28;20290;-80
2023/07/31 01:03:55;;;;;;;;;;;15.50;99.90;;;;;;5026300;28;19923;-79
2023/07/31 01:06:32;;;;;;;;;;;15.50;99.90;;;;;;5048851;28;20615;-82
2023/07/31 01:09:02;;;;;;;;;;;15.40;99.90;;;;;;5046443;28;19978;-81
2023/07/31 01:11:29;;;;;;;;;;;15.40;99.90;;;;;;5048668;28;19916;-81
2023/07/31 01:13:55;;;;;;;;;;;15.40;99.90;;;;;;5063699;28;20001;-82
2023/07/31 01:16:21;;;;;;;;;;;15.40;99.90;;;;;;5047254;28;19920;-82
2023/07/31 01:18:48;;;;;;;;;;;15.40;99.90;;;;;;5050985;28;19921;-82
2023/07/31 01:21:13;;;;;;;;;;;15.40;99.90;;;;;;5033180;28;20350;-81
2023/07/31 01:23:59;;;;;;;;;;;15.40;99.90;;;;;;5055971;28;19927;-81
2023/07/31 01:26:28;;;;;;;;;;;15.40;99.90;;;;;;5023817;28;19924;-82
2023/07/31 01:29:00;;;;;;;;;;;15.40;99.90;;;;;;5061122;28;19923;-83
2023/07/31 01:31:27;;;;;;;;;;;15.60;99.90;;;;;;5034714;28;20541;-80
2023/07/31 01:33:54;;;;;;;;;;;15.40;99.90;;;;;;5025959;28;19960;-80
2023/07/31 01:36:20;;;;;;;;;;;15.40;99.90;;;;;;5048510;28;19917;-80
2023/07/31 01:38:45;;;;;;;;;;;15.40;99.90;;;;;;5044713;28;19916;-79
2023/07/31 01:41:11;;;;;;;;;;;15.40;99.90;;;;;;5046234;28;19932;-79
2023/07/31 01:43:37;;;;;;;;;;;15.40;99.90;;;;;;5044243;28;19928;-79
2023/07/31 01:46:02;;;;;;;;;;;15.40;99.90;;;;;;5045173;28;19916;-80
2023/07/31 01:48:28;;;;;;;;;;;15.40;99.90;;;;;;5031114;28;19917;-82
2023/07/31 01:50:53;;;;;;;;;;;15.40;99.90;;;;;;5032705;28;19943;-79
2023/07/31 01:53:19;;;;;;;;;;;15.40;99.90;;;;;;5048783;28;20458;-81
2023/07/31 01:55:44;;;;;;;;;;;15.40;99.90;;;;;;5069831;28;19921;-82
2023/07/31 01:58:10;;;;;;;;;;;15.40;99.90;;;;;;5030896;28;20374;-80
2023/07/31 02:00:35;;;;;;;;;;;15.40;99.90;;;;;;5039295;28;19916;-81
2023/07/31 02:03:01;;;;;;;;;;;15.40;99.90;;;;;;5048894;28;19966;-84
2023/07/31 02:05:27;;;;;;;;;;;15.40;99.90;;;;;;5058396;28;19932;-82
2023/07/31 02:07:52;;;;;;;;;;;15.40;99.90;;;;;;5060778;28;19928;-83
2023/07/31 02:10:18;;;;;;;;;;;15.40;99.90;;;;;;5028324;28;20030;-82
2023/07/31 02:12:43;;;;;;;;;;;15.40;99.90;;;;;;5034217;28;19924;-82
2023/07/31 02:15:09;;;;;;;;;;;15.40;99.90;;;;;;5061274;28;19916;-78
2023/07/31 02:17:35;;;;;;;;;;;15.40;99.90;;;;;;5063522;28;19917;-78
2023/07/31 02:20:00;;;;;;;;;;;15.40;99.90;;;;;;5063469;28;19925;-81
2023/07/31 02:22:26;;;;;;;;;;;15.40;99.90;;;;;;5041729;28;20007;-83
2023/07/31 02:24:51;;;;;;;;;;;15.40;99.90;;;;;;5022925;28;19956;-82
2023/07/31 02:27:17;;;;;;;;;;;15.40;99.90;;;;;;5051597;28;20011;-81
2023/07/31 02:29:43;;;;;;;;;;;15.40;99.90;;;;;;5035939;28;19972;-85
2023/07/31 02:32:08;;;;;;;;;;;15.40;99.90;;;;;;5070009;28;19928;-80
2023/07/31 02:34:34;;;;;;;;;;;15.40;99.90;;;;;;5036766;28;19921;-81
2023/07/31 02:36:59;;;;;;;;;;;15.30;99.90;;;;;;5053348;28;19917;-82
2023/07/31 02:39:25;;;;;;;;;;;15.30;99.90;;;;;;5055257;28;19975;-81
2023/07/31 02:41:51;;;;;;;;;;;15.30;99.90;;;;;;5030020;28;20018;-84
2023/07/31 02:44:18;;;;;;;;;;;15.30;99.90;;;;;;5058435;28;19971;-82
2023/07/31 02:46:44;;;;;;;;;;;15.30;99.90;;;;;;5050249;28;19940;-84
2023/07/31 02:49:09;;;;;;;;;;;15.30;99.90;;;;;;5050660;28;19917;-82
2023/07/31 02:51:35;;;;;;;;;;;15.40;99.90;;;;;;5076667;28;19948;-80
2023/07/31 02:54:00;;;;;;;;;;;15.30;99.90;;;;;;5049112;28;20393;-81
2023/07/31 02:56:26;;;;;;;;;;;15.30;99.90;;;;;;5031433;28;19995;-82
2023/07/31 02:58:52;;;;;;;;;;;15.30;99.90;;;;;;5015958;28;19964;-84
2023/07/31 03:01:17;;;;;;;;;;;15.30;99.90;;;;;;5047556;28;19920;-82
2023/07/31 03:03:46;;;;;;;;;;;15.30;99.90;;;;;;5044661;28;19916;-81
2023/07/31 03:06:11;;;;;;;;;;;15.30;99.90;;;;;;5052612;28;20255;-81
2023/07/31 03:08:37;;;;;;;;;;;15.30;99.90;;;;;;5016937;28;19920;-81
2023/07/31 03:11:02;;;;;;;;;;;15.30;99.90;;;;;;5028000;28;19920;-81
2023/07/31 03:13:28;;;;;;;;;;;15.30;99.90;;;;;;5037725;28;19916;-80
2023/07/31 03:15:54;;;;;;;;;;;15.30;99.90;;;;;;5047525;28;20389;-81
2023/07/31 03:18:23;;;;;;;;;;;15.30;99.90;;;;;;5046373;28;19917;-78
2023/07/31 03:20:49;;;;;;;;;;;15.30;99.90;;;;;;5026840;28;19948;-79
2023/07/31 03:23:15;;;;;;;;;;;15.30;99.90;;;;;;5047753;28;19917;-80
2023/07/31 03:25:54;;;;;;;;;;;15.30;99.90;;;;;;5017694;28;20017;-81
2023/07/31 03:28:20;;;;;;;;;;;15.30;99.90;;;;;;5052247;28;19940;-80
2023/07/31 03:30:45;;;;;;;;;;;15.30;99.90;;;;;;5052204;28;19921;-79
2023/07/31 03:33:14;;;;;;;;;;;15.30;99.90;;;;;;5050296;28;19925;-80
2023/07/31 03:35:47;;;;;;;;;;;15.30;99.90;;;;;;5048806;28;19962;-79
2023/07/31 03:38:13;;;;;;;;;;;15.30;99.90;;;;;;5032262;28;19928;-79
2023/07/31 03:40:38;;;;;;;;;;;15.30;99.90;;;;;;5028583;28;19917;-81
2023/07/31 03:43:05;;;;;;;;;;;15.30;99.90;;;;;;5030800;28;19920;-82
2023/07/31 03:45:30;;;;;;;;;;;15.20;99.90;;;;;;5052917;28;19931;-81
2023/07/31 03:47:56;;;;;;;;;;;15.30;99.90;;;;;;5043667;28;19999;-83
2023/07/31 03:50:21;;;;;;;;;;;15.20;99.90;;;;;;5032856;28;19943;-81
2023/07/31 03:52:47;;;;;;;;;;;15.20;99.90;;;;;;5037782;28;19965;-83
2023/07/31 03:55:12;;;;;;;;;;;15.20;99.90;;;;;;5052680;28;19959;-84
2023/07/31 03:57:38;;;;;;;;;;;15.20;99.90;;;;;;5050623;28;19970;-83
2023/07/31 04:00:05;;;;;;;;;;;15.20;99.90;;;;;;5056232;28;19916;-84
2023/07/31 04:02:33;;;;;;;;;;;15.20;99.90;;;;;;5027503;28;19970;-84
2023/07/31 04:04:59;;;;;;;;;;;15.20;99.90;;;;;;5027077;28;19923;-79
2023/07/31 04:07:25;;;;;;;;;;;15.20;99.90;;;;;;5030526;28;20280;-82
2023/07/31 04:09:52;;;;;;;;;;;15.20;99.90;;;;;;5019595;28;19921;-82
2023/07/31 04:12:19;;;;;;;;;;;15.20;99.90;;;;;;5026546;28;19921;-82
2023/07/31 04:14:46;;;;;;;;;;;15.20;99.90;;;;;;5049338;28;19917;-82
2023/07/31 04:17:11;;;;;;;;;;;15.30;99.90;;;;;;5063972;28;19959;-81
2023/07/31 04:19:40;;;;;;;;;;;15.20;99.90;;;;;;5050246;28;20297;-81
2023/07/31 04:22:06;;;;;;;;;;;15.20;99.90;;;;;;5051695;28;20027;-81
2023/07/31 04:24:32;;;;;;;;;;;15.20;99.90;;;;;;5032938;28;19952;-82
2023/07/31 04:26:58;;;;;;;;;;;15.30;99.90;;;;;;5058016;28;19966;-83
2023/07/31 04:29:24;;;;;;;;;;;15.30;99.90;;;;;;5018882;28;19917;-81
2023/07/31 04:31:53;;;;;;;;;;;15.30;99.90;;;;;;5048811;28;19964;-82
2023/07/31 04:34:19;;;;;;;;;;;15.30;99.90;;;;;;5043462;28;19924;-81
2023/07/31 04:36:45;;;;;;;;;;;15.30;99.90;;;;;;5031372;28;19991;-78
2023/07/31 04:39:10;;;;;;;;;;;15.30;99.90;;;;;;5043096;28;19967;-80
2023/07/31 04:41:39;;;;;;;;;;;15.30;99.90;;;;;;5052264;28;19927;-80
2023/07/31 04:44:05;;;;;;;;;;;15.30;99.90;;;;;;5027582;28;20301;-82
2023/07/31 04:46:30;;;;;;;;;;;15.30;99.90;;;;;;5055485;28;19917;-83
2023/07/31 04:48:56;;;;;;;;;;;15.30;99.90;;;;;;5044085;28;19917;-82
2023/07/31 04:51:23;;;;;;;;;;;15.30;99.90;;;;;;5031072;28;19920;-84
2023/07/31 04:53:56;;;;;;;;;;;15.30;99.90;;;;;;5025346;28;19983;-81
2023/07/31 04:56:21;;;;;;;;;;;15.40;99.90;;;;;;5049898;28;19924;-84
2023/07/31 04:58:47;;;;;;;;;;;15.40;99.90;;;;;;5035087;28;19932;-82
2023/07/31 05:01:12;;;;;;;;;;;15.40;99.90;;;;;;5068066;28;20027;-84
2023/07/31 05:03:38;;;;;;;;;;;15.30;99.90;;;;;;5038951;28;19917;-84
2023/07/31 05:06:04;;;;;;;;;;;15.30;99.90;;;;;;5037228;28;20643;-79
2023/07/31 05:08:30;;;;;;;;;;;15.40;99.90;;;;;;5018813;28;19917;-85
2023/07/31 05:10:56;;;;;;;;;;;15.40;99.90;;;;;;5022379;28;19974;-82
2023/07/31 05:13:21;;;;;;;;;;;15.30;99.90;;;;;;5036789;28;19917;-83
2023/07/31 05:15:53;;;;;;;;;;;15.40;99.90;;;;;;5046065;28;19940;-85
2023/07/31 05:18:19;;;;;;;;;;;15.40;99.90;;;;;;5037946;28;20418;-82
2023/07/31 05:20:50;;;;;;;;;;;15.40;99.90;;;;;;5047313;28;20015;-82
2023/07/31 05:23:16;;;;;;;;;;;15.40;99.90;;;;;;5031683;28;20011;-82
2023/07/31 05:25:41;;;;;;;;;;;15.40;99.90;;;;;;5020382;28;19916;-81
2023/07/31 05:28:07;;;;;;;;;;;15.40;99.90;;;;;;5038328;28;19916;-81
2023/07/31 05:30:33;;;;;;;;;;;15.40;99.90;;;;;;5041028;28;19992;-80
2023/07/31 05:32:59;;;;;;;;;;;15.50;99.90;;;;;;5032331;28;19924;-82
2023/07/31 05:35:24;;;;;;;;;;;15.50;99.90;;;;;;5040931;28;19921;-81
2023/07/31 05:37:50;;;;;;;;;;;15.50;99.90;;;;;;5033045;28;19920;-82
2023/07/31 05:40:15;;;;;;;;;;;15.50;99.90;;;;;;5034450;28;19925;-82
2023/07/31 05:42:41;;;;;;;;;;;15.60;99.90;;;;;;5054521;28;19925;-82
2023/07/31 05:45:08;;;;;;;;;;;15.60;99.90;;;;;;5038354;28;19927;-82
2023/07/31 05:47:34;;;;;;;;;;;15.70;99.90;;;;;;5027582;28;19939;-84
2023/07/31 05:49:59;;;;;;;;;;;15.70;99.90;;;;;;5037862;28;20361;-82
2023/07/31 05:52:25;;;;;;;;;;;15.70;99.90;;;;;;5053046;28;20330;-82
2023/07/31 05:54:51;;;;;;;;;;;15.70;99.90;;;;;;5047224;28;19924;-80
2023/07/31 05:57:17;;;;;;;;;;;15.70;99.90;;;;;;5027858;28;19966;-82
2023/07/31 05:59:42;;;;;;;;;;;15.70;99.90;;;;;;5035865;28;20370;-81
2023/07/31 06:02:08;;;;;;;;;;;15.70;99.90;;;;;;5065028;28;19921;-82
2023/07/31 06:04:39;;;;;;;;;;;15.70;99.90;;;;;;5049033;28;20266;-81
2023/07/31 06:07:05;;;;;;;;;;;15.70;99.90;;;;;;5040305;28;19920;-81
2023/07/31 06:09:31;;;;;;;;;;;15.80;99.90;;;;;;5047937;28;19920;-83
2023/07/31 06:11:56;;;;;;;;;;;15.80;99.90;;;;;;5039438;28;19921;-81
2023/07/31 06:14:22;;;;;;;;;;;15.80;99.90;;;;;;5042071;28;19921;-81
2023/07/31 06:16:47;;;;;;;;;;;15.80;99.90;;;;;;5075130;28;21592;-84
2023/07/31 06:19:13;;;;;;;;;;;15.90;99.90;;;;;;5051206;28;19922;-81
2023/07/31 06:21:43;;;;;;;;;;;15.80;99.90;;;;;;5055656;28;19925;-80
2023/07/31 06:24:08;;;;;;;;;;;15.90;99.90;;;;;;5055149;28;19927;-80
2023/07/31 06:26:34;;;;;;;;;;;15.90;99.90;;;;;;5042668;28;19921;-81
2023/07/31 06:29:01;;;;;;;;;;;16.00;99.90;;;;;;5033394;28;20285;-81
2023/07/31 06:31:26;;;;;;;;;;;16.00;99.90;;;;;;5026503;28;20378;-80
2023/07/31 06:33:52;;;;;;;;;;;16.00;99.90;;;;;;5054850;28;19923;-81
2023/07/31 06:36:18;;;;;;;;;;;16.10;99.90;;;;;;5015360;28;19932;-80
2023/07/31 06:38:44;;;;;;;;;;;16.10;99.90;;;;;;5028903;28;19927;-81
2023/07/31 06:41:10;;;;;;;;;;;16.20;99.90;;;;;;5044025;28;19952;-80
2023/07/31 06:43:36;;;;;;;;;;;16.30;99.90;;;;;;5053435;28;21404;-80
2023/07/31 06:46:08;;;;;;;;;;;16.30;99.90;;;;;;5036104;28;19921;-81
2023/07/31 06:48:34;;;;;;;;;;;16.40;99.90;;;;;;5052501;28;19921;-82
2023/07/31 06:51:01;;;;;;;;;;;16.40;99.90;;;;;;5075921;28;19933;-84
2023/07/31 06:53:27;;;;;;;;;;;16.40;99.90;;;;;;5051988;28;19920;-84
2023/07/31 06:55:58;;;;;;;;;;;16.50;99.90;;;;;;5042112;28;19924;-84
2023/07/31 06:58:24;;;;;;;;;;;16.70;99.90;;;;;;5028996;28;19920;-83
2023/07/31 07:00:50;;;;;;;;;;;16.90;99.90;;;;;;5023213;28;19986;-81
2023/07/31 07:03:17;;;;;;;;;;;17.00;99.90;;;;;;5049220;28;19921;-78
2023/07/31 07:05:43;;;;;;;;;;;17.10;99.90;;;;;;5042650;28;19928;-79
2023/07/31 07:08:09;;;;;;;;;;;17.20;99.90;;;;;;5029794;28;19921;-78
2023/07/31 07:10:35;;;;;;;;;;;17.40;99.90;;;;;;5072324;28;20374;-79
2023/07/31 07:13:04;;;;;;;;;;;17.40;99.90;;;;;;5046422;28;19923;-79
2023/07/31 07:15:30;;;;;;;;;;;17.40;99.90;;;;;;5031987;28;19921;-81
2023/07/31 07:17:56;;;;;;;;;;;17.40;99.90;;;;;;5048809;28;20015;-83
2023/07/31 07:20:21;;;;;;;;;;;17.40;99.90;;;;;;5063419;28;19921;-79
2023/07/31 07:22:47;;;;;;;;;;;17.40;99.90;;;;;;5041695;28;19986;-76
2023/07/31 07:25:12;;;;;;;;;;;17.30;99.90;;;;;;5047026;28;19927;-80
2023/07/31 07:27:38;;;;;;;;;;;17.40;99.90;;;;;;5018990;28;20011;-78
2023/07/31 07:30:04;;;;;;;;;;;17.40;99.90;;;;;;5062992;28;20640;-83
2023/07/31 07:32:29;;;;;;;;;;;17.40;99.90;;;;;;5067006;28;20160;-80
2023/07/31 07:34:56;;;;;;;;;;;17.30;99.90;;;;;;5047355;28;19920;-78
2023/07/31 07:37:22;;;;;;;;;;;17.30;99.90;;;;;;5047444;28;19917;-80
2023/07/31 07:39:47;;;;;;;;;;;17.20;99.90;;;;;;5036752;28;19928;-79
2023/07/31 07:42:13;;;;;;;;;;;17.20;99.90;;;;;;5031182;28;19924;-80
2023/07/31 07:44:39;;;;;;;;;;;17.20;99.90;;;;;;5044983;28;20310;-80
2023/07/31 07:47:06;;;;;;;;;;;17.20;99.90;;;;;;5040359;28;19921;-79
2023/07/31 07:49:33;;;;;;;;;;;17.20;99.90;;;;;;5043433;28;20577;-81
2023/07/31 07:51:58;;;;;;;;;;;17.20;99.90;;;;;;5043758;28;19917;-80
2023/07/31 07:54:24;;;;;;;;;;;17.20;99.90;;;;;;5044611;28;19940;-82
2023/07/31 07:56:50;;;;;;;;;;;17.30;99.90;;;;;;5033945;28;19917;-83
2023/07/31 07:59:15;;;;;;;;;;;17.20;99.90;;;;;;5063405;28;19916;-80
2023/07/31 08:01:41;;;;;;;;;;;17.20;99.90;;;;;;5038349;28;19925;-82
2023/07/31 08:04:06;;;;;;;;;;;17.20;99.90;;;;;;5021777;28;19921;-80
2023/07/31 08:06:32;;;;;;;;;;;17.20;99.90;;;;;;5047050;28;19917;-81
2023/07/31 08:08:57;;;;;;;;;;;17.20;99.90;;;;;;5031273;28;19929;-82
2023/07/31 08:11:24;;;;;;;;;;;17.20;99.90;;;;;;5039025;28;19917;-82
2023/07/31 08:13:50;;;;;;;;;;;17.20;99.90;;;;;;5075109;28;19921;-82
2023/07/31 08:16:15;;;;;;;;;;;17.30;99.90;;;;;;5047905;28;19917;-80
2023/07/31 08:18:47;;;;;;;;;;;17.50;99.90;;;;;;5047020;28;20046;-82
2023/07/31 08:21:12;;;;;;;;;;;17.60;99.90;;;;;;5043928;28;20478;-80
2023/07/31 08:23:38;;;;;;;;;;;17.80;99.90;;;;;;5073684;28;19921;-80
2023/07/31 08:26:03;;;;;;;;;;;18.00;99.90;;;;;;5048693;28;19924;-79
2023/07/31 08:28:29;;;;;;;;;;;;;;;;;;5033412;28;19924;-77
2023/07/31 08:30:55;;;;;;;;;;;18.20;99.90;;;;;;5026818;28;20602;-78
2023/07/31 08:33:21;;;;;;;;;;;18.20;99.90;;;;;;5037591;28;20418;-79
2023/07/31 08:35:46;;;;;;;;;;;18.30;99.90;;;;;;5028820;28;19924;-79
2023/07/31 08:38:56;;;;;;;0.20;0.20;;;18.20;99.90;;;;;;5104936;27;2132338;-79
2023/07/31 08:41:22;;;;;;;;;;;18.40;99.90;;;;;;5133406;27;20046;-77
2023/07/31 08:43:49;;;;;;;0.43;0.43;;;18.40;99.90;;;;;;5128307;27;19959;-78
2023/07/31 08:46:15;;;;;;;0.20;0.20;;;18.40;99.90;;;;;;5130126;27;20035;-77
2023/07/31 08:48:47;;;;;;;0.28;0.28;;;18.30;99.90;;;;;;5128988;27;20042;-79
2023/07/31 08:51:14;;;;;;;0.20;0.20;;;18.40;99.90;;;;;;5126327;27;20038;-78
2023/07/31 08:53:40;;;;;;;0.70;0.70;;;18.50;99.90;;;;;;5113212;27;20034;-75
2023/07/31 08:56:06;;;;;;;;;;;18.50;99.90;;;;;;5144456;27;20079;-79
2023/07/31 08:58:32;;;;;;;0.25;0.25;;;18.50;99.90;;;;;;5144981;27;20344;-79
2023/07/31 09:01:03;;;;;;;0.35;0.35;;;18.40;99.90;;;;;;5147897;27;20034;-78
2023/07/31 09:03:32;;;;;;;0.20;0.20;;;18.30;99.90;;;;;;5125553;27;20034;-78
2023/07/31 09:05:59;;;;;;;0.30;0.30;;;18.40;99.90;;;;;;5144375;27;20103;-76
2023/07/31 09:08:30;;;;;;;0.20;0.20;;;18.40;99.90;;;;;;5130163;27;20479;-75
2023/07/31 09:11:04;;;;;;;0.10;0.10;;;18.40;99.90;;;;;;5149752;27;20046;-79
2023/07/31 09:13:31;;;;;;;0.20;0.20;;;18.40;99.90;;;;;;5130380;27;20089;-76
2023/07/31 09:15:57;;;;;;;0.20;0.20;;;18.50;99.90;;;;;;5146428;27;20088;-77
2023/07/31 09:18:23;;;;;;;;;;;18.50;99.90;;;;;;5130509;27;20035;-77
2023/07/31 09:21:05;;;;;;;0.30;0.30;;;18.60;99.90;;;;;;5136049;27;19966;-80
2023/07/31 09:23:45;;;;;;;0.30;0.30;;;18.70;99.90;;;;;;5144515;27;20030;-78
2023/07/31 09:26:10;;;;;;;0.22;0.22;;;18.80;99.90;;;;;;5142574;27;20121;-78
2023/07/31 09:28:36;;;;;;;;;;;18.90;99.90;;;;;;5146732;27;20137;-77
2023/07/31 09:31:02;;;;;;;0.20;0.20;;;18.90;99.90;;;;;;5146596;27;19947;-74
2023/07/31 09:33:28;;;;;;;;;;;18.90;99.90;;;;;;5149664;27;20046;-76
2023/07/31 09:35:53;;;;;;;0.30;0.30;;;18.90;99.90;;;;;;5130063;27;19919;-75
2023/07/31 09:38:23;;;;;;;0.30;0.30;;;18.90;99.90;;;;;;5145241;27;20388;-78
2023/07/31 09:40:49;;;;;;;0.30;0.30;;;18.90;99.90;;;;;;5121828;27;20043;-77
2023/07/31 09:43:19;;;;;;;;;;;18.90;99.90;;;;;;5143708;27;20039;-77
2023/07/31 09:45:45;;;;;;;0.20;0.20;;;18.80;99.90;;;;;;5142801;27;19919;-77
2023/07/31 09:48:16;;;;;;;0.20;0.20;;;18.80;99.90;;;;;;5139893;27;20030;-77
2023/07/31 09:50:45;;;;;;;0.30;0.30;;;18.90;99.90;;;;;;5110806;27;20110;-76
2023/07/31 09:53:11;;;;;;;0.55;0.55;;;19.00;99.90;;;;;;5127284;27;20380;-77
2023/07/31 09:55:37;;;;;;;;;;;19.00;99.90;;;;;;5130081;27;20069;-82
2023/07/31 09:58:08;;;;;;;0.30;0.30;;;19.10;99.90;;;;;;5127672;27;19923;-79
2023/07/31 10:00:34;;;;;;;0.30;0.30;;;19.10;99.90;;;;;;5110159;27;20047;-82
2023/07/31 10:03:03;;;;;;;0.20;0.20;;;19.10;99.90;;;;;;5093881;27;20101;-78
2023/07/31 10:05:34;;;;;;;0.30;0.30;;;19.10;99.90;;;;;;5111725;27;20334;-77
2023/07/31 10:08:00;;;;;;;0.22;0.22;;;19.00;99.90;;;;;;5112277;27;20051;-76
2023/07/31 10:10:27;;;;;;;;;;;19.20;99.90;;;;;;5121167;27;20072;-79
2023/07/31 10:12:53;;;;;;;;;;;19.20;99.90;;;;;;5129120;27;19950;-77
2023/07/31 10:15:19;;;;;;;0.20;0.20;;;19.30;99.90;;;;;;5129476;27;20002;-81
2023/07/31 10:17:48;;;;;;;0.22;0.22;;;19.40;99.90;;;;;;5110990;27;20047;-78
2023/07/31 10:20:16;;;;;;;0.30;0.30;;;19.50;99.90;;;;;;5125420;27;20149;-79
2023/07/31 10:22:43;;;;;;;0.40;0.40;;;19.60;99.90;;;;;;5112591;27;20508;-79
2023/07/31 10:25:09;;;;;;;0.25;0.25;;;19.60;99.90;;;;;;5088453;28;20405;-79
2023/07/31 10:27:37;;;;;;;0.30;0.30;;;19.50;99.90;;;;;;5124381;27;20047;-81
2023/07/31 10:30:05;;;;;;;0.30;0.30;;;19.50;99.90;;;;;;5109208;27;20054;-80
2023/07/31 10:32:33;;;;;;;0.30;0.30;;;19.40;99.90;;;;;;5093260;27;20043;-81
2023/07/31 10:35:00;;;;;;;0.30;0.30;;;19.20;99.90;;;;;;5113305;27;20051;-80
2023/07/31 10:37:29;;;;;;;0.20;0.20;;;19.30;99.90;;;;;;5093494;27;20590;-79
2023/07/31 10:39:58;;;;;;;0.20;0.20;;;19.30;99.90;;;;;;5120665;27;20039;-84
2023/07/31 10:42:34;;;;;;;0.30;0.30;;;19.20;99.90;;;;;;5128642;27;20055;-81
2023/07/31 10:45:09;;;;;;;0.30;0.30;;;18.90;99.90;;;;;;5120396;27;20506;-81
2023/07/31 10:47:42;;;;;;;0.22;0.22;;;18.80;99.90;;;;;;5108917;27;20050;-83
2023/07/31 10:50:21;;;;;;;0.25;0.25;;;18.70;99.90;;;;;;5128229;27;20035;-84
2023/07/31 10:52:54;;;;;;;0.30;0.30;;;18.80;99.90;;;;;;5114198;27;20085;-83
2023/07/31 10:55:27;;;;;;;0.20;0.20;;;18.80;99.90;;;;;;5112187;27;20107;-80
2023/07/31 10:57:55;;;;;;;0.30;0.30;;;18.90;99.90;;;;;;5113352;27;20043;-84
2023/07/31 11:00:30;;;;;;;0.20;0.20;;;18.90;99.90;;;;;;5122855;27;20036;-78
2023/07/31 11:03:02;;;;;;;0.40;0.40;;;19.10;99.90;;;;;;5130122;27;20050;-83
2023/07/31 11:05:47;;;;;;;0.30;0.30;;;19.40;99.90;;;;;;5131390;27;20119;-81
2023/07/31 11:08:14;;;;;;;0.35;0.35;;;19.70;99.90;;;;;;5108332;27;20050;-82
2023/07/31 11:10:40;;;;;;;0.30;0.30;;;19.90;99.90;;;;;;5110989;27;20039;-82
2023/07/31 11:13:06;;;;;;;0.20;0.20;;;20.00;99.90;;;;;;5123500;27;20065;-81
2023/07/31 11:15:32;;;;;;;;;;;20.10;99.90;;;;;;5095205;27;20042;-84
2023/07/31 11:17:58;;;;;;;0.20;0.20;;;20.00;99.90;;;;;;5118721;27;20074;-82
2023/07/31 11:20:24;;;;;;;;;;;19.90;99.90;;;;;;5124285;27;20073;-80
2023/07/31 11:22:51;;;;;;;0.30;0.30;;;19.70;99.90;;;;;;5093876;27;20405;-81
2023/07/31 11:25:18;;;;;;;0.20;0.20;;;19.60;99.90;;;;;;5107015;27;20031;-81
2023/07/31 11:27:43;;;;;;;0.20;0.20;;;19.40;99.90;;;;;;5109365;27;20027;-80
2023/07/31 11:30:10;;;;;;;0.20;0.20;;;19.20;99.90;;;;;;5104509;27;20541;-80
2023/07/31 11:32:37;;;;;;;0.20;0.20;;;19.20;99.90;;;;;;5111594;27;20030;-86
2023/07/31 11:35:05;;;;;;;0.20;0.20;;;19.40;99.90;;;;;;5107885;27;20046;-82
2023/07/31 11:37:45;;;;;;;0.40;0.40;;;19.50;99.90;;;;;;5105199;27;20071;-84
2023/07/31 11:40:11;;;;;;;0.30;0.30;;;19.50;99.90;;;;;;5103150;27;20092;-83
2023/07/31 11:42:37;;;;;;;0.30;0.30;;;19.50;99.90;;;;;;5105760;27;20418;-80
2023/07/31 11:45:08;;;;;;;0.30;0.30;;;19.40;99.90;;;;;;5095037;27;20034;-83
2023/07/31 11:47:35;;;;;;;0.40;0.40;;;19.20;99.90;;;;;;5107405;27;20118;-83
2023/07/31 11:50:02;;;;;;;0.30;0.30;;;19.10;99.90;;;;;;5112049;27;20040;-79
2023/07/31 11:52:31;;;;;;;0.20;0.20;;;19.00;99.90;;;;;;5112576;27;20031;-84
2023/07/31 11:54:59;;;;;;;0.20;0.20;;;18.90;99.90;;;;;;5108868;27;20039;-82
2023/07/31 11:57:25;;;;;;;0.63;0.63;;;19.00;99.90;;;;;;5122494;27;20043;-81
2023/07/31 11:59:52;;;;;;;0.30;0.30;;;19.10;99.90;;;;;;5090830;27;20045;-83
2023/07/31 12:02:19;;;;;;;0.30;0.30;;;19.40;99.90;;;;;;5088374;27;20108;-83
2023/07/31 12:04:47;;;;;;;0.20;0.20;;;19.50;99.90;;;;;;5075266;27;20035;-82
2023/07/31 12:07:14;;;;;;;0.20;0.20;;;19.50;99.90;;;;;;5109224;27;20043;-83
2023/07/31 12:09:52;;;;;;;0.22;0.22;;;19.50;99.90;;;;;;5097749;27;20047;-84
2023/07/31 12:12:22;;;;;;;0.32;0.32;;;19.70;99.90;;;;;;5093653;27;20050;-84
2023/07/31 12:14:48;;;;;;;0.30;0.30;;;19.90;99.90;;;;;;5107458;27;20134;-82
2023/07/31 12:17:14;;;;;;;0.38;0.38;;;20.00;99.90;;;;;;5094821;27;20499;-83
2023/07/31 12:19:40;;;;;;;0.30;0.30;;;20.50;99.90;;;;;;5122268;27;20039;-81
2023/07/31 12:22:12;;;;;;;;;;;20.00;99.90;;;;;;5095726;27;20102;-84
2023/07/31 12:24:40;;;;;;;0.20;0.20;;;20.00;99.90;;;;;;5107429;27;20010;-85
2023/07/31 12:27:10;;;;;;;0.28;0.28;;;20.10;99.90;;;;;;5108094;28;20125;-84
2023/07/31 12:29:36;;;;;;;0.30;0.30;;;20.10;99.90;;;;;;5123165;27;20032;-81
2023/07/31 12:32:02;;;;;;;0.47;0.47;;;20.10;99.90;;;;;;5110956;27;20528;-83
2023/07/31 12:34:28;;;;;;;0.65;0.65;;;20.00;99.90;;;;;;5076800;28;20104;-82
2023/07/31 12:36:54;;;;;;;0.20;0.20;;;20.10;99.90;;;;;;5075649;27;20159;-81
2023/07/31 12:39:20;;;;;;;;;;;20.10;99.90;;;;;;5094806;27;20943;-81
2023/07/31 12:41:46;;;;;;;0.20;0.20;;;20.20;99.90;;;;;;5113876;27;19923;-83
2023/07/31 12:44:11;;;;;;;0.40;0.40;;;20.20;99.90;;;;;;5111927;27;20039;-82
2023/07/31 12:46:37;;;;;;;;;;;20.40;99.90;;;;;;5099101;27;20035;-82
2023/07/31 12:49:03;;;;;;;0.20;0.20;;;20.40;99.90;;;;;;5128356;27;20005;-78
2023/07/31 12:51:28;;;;;;;;;;;20.40;99.90;;;;;;5110004;27;20053;-79
2023/07/31 12:53:54;;;;;;;0.75;0.52;;;20.90;99.90;;;;;;5107917;27;19919;-81
2023/07/31 12:56:20;;;;;;;0.57;0.57;;;20.60;99.90;;;;;;5107409;27;20039;-79
2023/07/31 12:58:46;;;;;;;0.30;0.30;;;20.50;99.90;;;;;;5088049;27;20335;-81
2023/07/31 13:01:12;;;;;;;0.30;0.30;;;20.30;99.90;;;;;;5111800;27;20035;-79
2023/07/31 13:03:37;;;;;;;;;;;20.30;99.90;;;;;;5105877;27;20031;-79
2023/07/31 13:06:03;;;;;;;0.17;0.17;;;20.30;99.90;;;;;;5108346;27;20499;-77
2023/07/31 13:08:29;;;;;;;0.20;0.20;;;20.20;99.90;;;;;;5096155;27;20114;-79
2023/07/31 13:10:55;;;;;;;;;;;20.10;99.90;;;;;;5092409;27;20055;-79
2023/07/31 13:13:21;;;;;;;0.20;0.20;;;20.10;99.90;;;;;;5089997;27;19925;-80
2023/07/31 13:15:46;;;;;;;0.25;0.25;;;20.10;99.90;;;;;;5112115;27;20046;-80
2023/07/31 13:18:12;;;;;;;0.43;0.43;;;20.00;99.90;;;;;;5123328;27;20049;-78
2023/07/31 13:20:38;;;;;;;1.45;0.57;;;19.90;99.90;;;;;;5078434;27;20039;-78
2023/07/31 13:23:03;;;;;;;;;;;19.90;99.90;;;;;;5129720;27;20050;-80
2023/07/31 13:25:29;;;;;;;0.30;0.30;;;19.80;99.90;;;;;;5133236;27;19915;-80
2023/07/31 13:27:55;;;;;;;;;;;19.90;99.90;;;;;;5131681;27;20042;-79
2023/07/31 13:30:20;;;;;;;0.93;0.93;;;19.90;99.90;;;;;;5108286;27;19937;-79
2023/07/31 13:32:46;;;;;;;;;;;19.90;99.90;;;;;;5113120;27;20034;-77
2023/07/31 13:35:12;;;;;;;0.47;0.47;;;20.00;99.90;;;;;;5131004;27;20469;-78
2023/07/31 13:37:37;;;;;;;;;;;20.20;99.90;;;;;;5081641;27;20043;-77
2023/07/31 13:40:06;;;;;;;0.32;0.32;;;20.40;99.90;;;;;;5129079;27;19918;-79
2023/07/31 13:42:33;;;;;;;0.20;0.20;;;20.70;99.90;;;;;;5115128;27;20031;-80
2023/07/31 13:44:58;;;;;;;0.30;0.30;;;20.80;99.90;;;;;;5113816;27;20062;-79